Westphalia, Iowa
Current Conditions -  °F | °C
As of 4:35 PM on Sunday 23 Nov 2014 (Local Time) from KHNR Reporting Station
Light Rain Light Rain  
Wind Chill: 31°   Ceiling: NA
Heat Index: 41°   Visibility: NA
Dew Point: 39°   Wind: 25mph
Humidity: 93%   Direction: 340°NNW
Pressure: 29.51"   Gusts: 36mph
Location:  41.72°N, 95.39°W
Report Text: KHNR 232235Z AUTO 34022G31KT -RA 05/04 A2951 RMK AO2
Loading
Personal Weather Stations






























Interactive Weather Map New forecast layout! Learn more

10-Day Weather Forecast

Advertisements
Track Severe Weather on mobile